sensor_id;sensor_type;location;lat;lon;timestamp;pressure;altitude;pressure_sealevel;temperature;humidity
22181;BME280;11256;50.830;12.834;2022-10-16T00:04:55;97387.66;;;16.62;73.78
22181;BME280;11256;50.830;12.834;2022-10-16T00:09:55;97368.81;;;16.61;73.93
22181;BME280;11256;50.830;12.834;2022-10-16T00:14:55;97388.81;;;16.53;73.75
22181;BME280;11256;50.830;12.834;2022-10-16T00:19:56;97398.44;;;16.59;74.08
22181;BME280;11256;50.830;12.834;2022-10-16T00:24:57;97405.06;;;16.49;73.63
22181;BME280;11256;50.830;12.834;2022-10-16T00:29:57;97413.91;;;16.46;73.87
22181;BME280;11256;50.830;12.834;2022-10-16T00:34:57;97405.41;;;16.48;73.62
22181;BME280;11256;50.830;12.834;2022-10-16T00:39:58;97430.47;;;16.50;73.73
22181;BME280;11256;50.830;12.834;2022-10-16T00:44:59;97422.78;;;16.52;73.74
22181;BME280;11256;50.830;12.834;2022-10-16T00:50:06;97439.50;;;16.50;73.85
22181;BME280;11256;50.830;12.834;2022-10-16T00:55:08;97433.72;;;16.52;73.79
22181;BME280;11256;50.830;12.834;2022-10-16T01:00:12;97425.00;;;16.50;74.04
22181;BME280;11256;50.830;12.834;2022-10-16T01:05:13;97438.53;;;16.55;73.83
22181;BME280;11256;50.830;12.834;2022-10-16T01:15:32;97430.81;;;16.57;73.71
22181;BME280;11256;50.830;12.834;2022-10-16T01:31:33;97424.69;;;16.51;73.77
22181;BME280;11256;50.830;12.834;2022-10-16T01:36:46;97437.88;;;16.58;73.92
22181;BME280;11256;50.830;12.834;2022-10-16T01:42:00;97419.88;;;16.57;74.03
22181;BME280;11256;50.830;12.834;2022-10-16T01:47:01;97425.50;;;16.60;73.88
22181;BME280;11256;50.830;12.834;2022-10-16T01:52:06;97428.53;;;16.59;73.91
22181;BME280;11256;50.830;12.834;2022-10-16T01:57:08;97422.78;;;16.52;73.81
22181;BME280;11256;50.830;12.834;2022-10-16T02:02:12;97431.94;;;16.47;73.45
22181;BME280;11256;50.830;12.834;2022-10-16T02:07:14;97433.41;;;16.45;73.47
22181;BME280;11256;50.830;12.834;2022-10-16T02:12:23;97435.50;;;16.48;73.26
22181;BME280;11256;50.830;12.834;2022-10-16T02:17:26;97424.72;;;16.43;73.59
22181;BME280;11256;50.830;12.834;2022-10-16T02:22:43;97440.97;;;16.48;73.81
22181;BME280;11256;50.830;12.834;2022-10-16T02:28:04;97443.53;;;16.44;73.43
22181;BME280;11256;50.830;12.834;2022-10-16T02:33:09;97438.88;;;16.45;73.66
22181;BME280;11256;50.830;12.834;2022-10-16T02:38:11;97439.53;;;16.42;73.45
22181;BME280;11256;50.830;12.834;2022-10-16T02:43:12;97430.84;;;16.40;73.48
22181;BME280;11256;50.830;12.834;2022-10-16T02:48:13;97433.88;;;16.38;73.19
22181;BME280;11256;50.830;12.834;2022-10-16T02:53:13;97443.53;;;16.36;73.42
22181;BME280;11256;50.830;12.834;2022-10-16T02:58:13;97440.94;;;16.31;73.00
22181;BME280;11256;50.830;12.834;2022-10-16T03:03:14;97451.56;;;16.32;72.79
22181;BME280;11256;50.830;12.834;2022-10-16T03:08:14;97457.34;;;16.31;72.70
22181;BME280;11256;50.830;12.834;2022-10-16T03:13:15;97452.53;;;16.28;73.58
22181;BME280;11256;50.830;12.834;2022-10-16T03:18:15;97431.47;;;16.20;73.39
22181;BME280;11256;50.830;12.834;2022-10-16T03:23:16;97444.97;;;16.25;73.31
22181;BME280;11256;50.830;12.834;2022-10-16T03:28:16;97439.66;;;16.28;73.26
22181;BME280;11256;50.830;12.834;2022-10-16T03:33:16;97455.41;;;16.23;73.57
22181;BME280;11256;50.830;12.834;2022-10-16T03:38:17;97455.41;;;16.23;73.15
22181;BME280;11256;50.830;12.834;2022-10-16T03:43:17;97455.59;;;16.18;72.94
22181;BME280;11256;50.830;12.834;2022-10-16T03:48:18;97461.84;;;16.18;72.61
22181;BME280;11256;50.830;12.834;2022-10-16T03:53:19;97472.94;;;16.22;73.41
22181;BME280;11256;50.830;12.834;2022-10-16T03:58:19;97460.09;;;16.14;73.17
22181;BME280;11256;50.830;12.834;2022-10-16T04:03:20;97472.31;;;16.25;73.79
22181;BME280;11256;50.830;12.834;2022-10-16T04:08:21;97462.69;;;16.19;73.28
22181;BME280;11256;50.830;12.834;2022-10-16T04:13:21;97476.34;;;16.27;73.62
22181;BME280;11256;50.830;12.834;2022-10-16T04:18:22;97478.25;;;16.27;73.41
22181;BME280;11256;50.830;12.834;2022-10-16T04:23:23;97481.00;;;16.27;74.47
22181;BME280;11256;50.830;12.834;2022-10-16T04:28:23;97472.00;;;16.26;74.21
22181;BME280;11256;50.830;12.834;2022-10-16T04:33:24;97467.16;;;16.32;74.47
22181;BME280;11256;50.830;12.834;2022-10-16T04:38:25;97479.25;;;16.31;74.52
22181;BME280;11256;50.830;12.834;2022-10-16T04:43:25;97483.25;;;16.33;74.65
22181;BME280;11256;50.830;12.834;2022-10-16T04:48:26;97483.72;;;16.27;74.18
22181;BME280;11256;50.830;12.834;2022-10-16T04:53:26;97507.56;;;16.35;74.64
22181;BME280;11256;50.830;12.834;2022-10-16T04:58:26;97507.56;;;16.35;74.62
22181;BME280;11256;50.830;12.834;2022-10-16T05:03:27;97493.75;;;16.40;75.49
22181;BME280;11256;50.830;12.834;2022-10-16T05:08:27;97500.13;;;16.35;74.75
22181;BME280;11256;50.830;12.834;2022-10-16T05:13:28;97511.59;;;16.37;74.97
22181;BME280;11256;50.830;12.834;2022-10-16T05:18:28;97518.16;;;16.28;74.59
22181;BME280;11256;50.830;12.834;2022-10-16T05:23:28;97518.34;;;16.31;75.03
22181;BME280;11256;50.830;12.834;2022-10-16T05:28:29;97525.72;;;16.22;74.75
22181;BME280;11256;50.830;12.834;2022-10-16T05:33:30;97535.53;;;16.23;74.77
22181;BME280;11256;50.830;12.834;2022-10-16T05:38:30;97548.25;;;16.28;75.32
22181;BME280;11256;50.830;12.834;2022-10-16T05:43:31;97546.16;;;16.25;75.06
22181;BME280;11256;50.830;12.834;2022-10-16T05:48:33;97549.69;;;16.25;75.30
22181;BME280;11256;50.830;12.834;2022-10-16T05:53:34;97558.56;;;16.31;75.29
22181;BME280;11256;50.830;12.834;2022-10-16T05:58:36;97556.44;;;16.28;75.17
22181;BME280;11256;50.830;12.834;2022-10-16T06:03:37;97558.69;;;16.26;75.36
22181;BME280;11256;50.830;12.834;2022-10-16T06:08:38;97543.75;;;16.32;75.33
22181;BME280;11256;50.830;12.834;2022-10-16T06:13:39;97555.34;;;16.29;75.31
22181;BME280;11256;50.830;12.834;2022-10-16T06:18:42;97589.63;;;16.35;75.69
22181;BME280;11256;50.830;12.834;2022-10-16T06:23:42;97585.94;;;16.39;75.69
22181;BME280;11256;50.830;12.834;2022-10-16T06:28:43;97584.03;;;16.40;75.34
22181;BME280;11256;50.830;12.834;2022-10-16T06:33:44;97594.97;;;16.40;75.49
22181;BME280;11256;50.830;12.834;2022-10-16T06:38:46;97609.59;;;16.44;75.30
22181;BME280;11256;50.830;12.834;2022-10-16T06:43:47;97593.97;;;16.36;75.19
22181;BME280;11256;50.830;12.834;2022-10-16T06:48:48;97598.19;;;16.42;75.26
22181;BME280;11256;50.830;12.834;2022-10-16T06:53:53;97619.09;;;16.46;75.53
22181;BME280;11256;50.830;12.834;2022-10-16T06:58:54;97635.03;;;16.53;75.72
22181;BME280;11256;50.830;12.834;2022-10-16T07:03:54;97640.22;;;16.97;77.58
22181;BME280;11256;50.830;12.834;2022-10-16T07:08:55;97640.69;;;17.33;75.30
22181;BME280;11256;50.830;12.834;2022-10-16T07:13:55;97651.00;;;17.44;75.07
22181;BME280;11256;50.830;12.834;2022-10-16T07:18:57;97655.88;;;17.39;74.24
22181;BME280;11256;50.830;12.834;2022-10-16T07:23:59;97659.22;;;17.36;74.05
22181;BME280;11256;50.830;12.834;2022-10-16T07:29:01;97659.72;;;17.38;74.22
22181;BME280;11256;50.830;12.834;2022-10-16T07:34:02;97644.91;;;17.39;74.03
22181;BME280;11256;50.830;12.834;2022-10-16T07:39:03;97668.91;;;17.42;74.62
22181;BME280;11256;50.830;12.834;2022-10-16T07:44:03;97654.22;;;17.38;73.87
22181;BME280;11256;50.830;12.834;2022-10-16T07:49:04;97674.50;;;17.37;73.75
22181;BME280;11256;50.830;12.834;2022-10-16T07:54:05;97665.19;;;17.38;73.91
22181;BME280;11256;50.830;12.834;2022-10-16T07:59:05;97655.50;;;17.32;74.08
22181;BME280;11256;50.830;12.834;2022-10-16T08:04:05;97664.56;;;17.41;74.50
22181;BME280;11256;50.830;12.834;2022-10-16T08:09:07;97683.41;;;17.51;75.21
22181;BME280;11256;50.830;12.834;2022-10-16T08:14:09;97676.41;;;17.79;76.44
22181;BME280;11256;50.830;12.834;2022-10-16T08:19:09;97679.91;;;17.96;75.98
22181;BME280;11256;50.830;12.834;2022-10-16T08:24:10;97695.31;;;18.18;75.97
22181;BME280;11256;50.830;12.834;2022-10-16T08:29:10;97681.88;;;18.33;76.43
22181;BME280;11256;50.830;12.834;2022-10-16T08:34:11;97673.19;;;18.60;76.15
22181;BME280;11256;50.830;12.834;2022-10-16T08:39:11;97691.56;;;18.89;75.29
22181;BME280;11256;50.830;12.834;2022-10-16T08:49:31;97695.81;;;19.07;74.40
22181;BME280;11256;50.830;12.834;2022-10-16T08:54:35;97708.00;;;19.18;74.22
22181;BME280;11256;50.830;12.834;2022-10-16T08:59:40;97699.06;;;19.21;74.19
22181;BME280;11256;50.830;12.834;2022-10-16T09:09:58;97699.94;;;19.21;74.16
22181;BME280;11256;50.830;12.834;2022-10-16T09:15:12;97732.31;;;19.36;73.73
22181;BME280;11256;50.830;12.834;2022-10-16T09:20:26;97739.66;;;19.44;73.60
22181;BME280;11256;50.830;12.834;2022-10-16T09:25:29;97728.13;;;19.51;73.35
22181;BME280;11256;50.830;12.834;2022-10-16T09:30:30;97734.53;;;19.55;73.54
22181;BME280;11256;50.830;12.834;2022-10-16T09:35:47;97735.50;;;19.59;72.98
22181;BME280;11256;50.830;12.834;2022-10-16T09:40:49;97747.34;;;19.71;73.02
22181;BME280;11256;50.830;12.834;2022-10-16T09:46:06;97752.91;;;19.83;72.51
22181;BME280;11256;50.830;12.834;2022-10-16T09:51:18;97743.63;;;19.88;72.60
22181;BME280;11256;50.830;12.834;2022-10-16T09:56:25;97767.31;;;20.01;72.29
22181;BME280;11256;50.830;12.834;2022-10-16T10:01:30;97782.66;;;20.02;71.92
22181;BME280;11256;50.830;12.834;2022-10-16T10:06:37;97770.44;;;20.11;71.43
22181;BME280;11256;50.830;12.834;2022-10-16T10:11:44;97770.13;;;20.13;71.43
22181;BME280;11256;50.830;12.834;2022-10-16T10:16:45;97782.63;;;20.22;71.40
22181;BME280;11256;50.830;12.834;2022-10-16T10:21:47;97785.16;;;20.27;71.28
22181;BME280;11256;50.830;12.834;2022-10-16T10:27:12;97778.47;;;20.49;70.60
22181;BME280;11256;50.830;12.834;2022-10-16T10:37:33;97782.38;;;20.84;70.36
22181;BME280;11256;50.830;12.834;2022-10-16T10:42:56;97800.09;;;20.95;70.12
22181;BME280;11256;50.830;12.834;2022-10-16T10:48:23;97792.31;;;21.09;69.91
22181;BME280;11256;50.830;12.834;2022-10-16T10:53:39;97791.38;;;21.17;68.83
22181;BME280;11256;50.830;12.834;2022-10-16T10:59:19;97787.56;;;21.21;69.26
22181;BME280;11256;50.830;12.834;2022-10-16T11:09:47;97780.78;;;21.31;68.94
22181;BME280;11256;50.830;12.834;2022-10-16T11:15:10;97796.88;;;21.41;68.69
22181;BME280;11256;50.830;12.834;2022-10-16T11:20:32;97773.16;;;21.40;68.49
22181;BME280;11256;50.830;12.834;2022-10-16T11:25:34;97793.84;;;21.58;67.27
22181;BME280;11256;50.830;12.834;2022-10-16T11:30:43;97794.97;;;21.69;67.44
22181;BME280;11256;50.830;12.834;2022-10-16T11:35:48;97794.44;;;21.91;67.31
22181;BME280;11256;50.830;12.834;2022-10-16T11:40:54;97806.50;;;21.98;67.03
22181;BME280;11256;50.830;12.834;2022-10-16T11:46:15;97802.88;;;22.10;68.06
22181;BME280;11256;50.830;12.834;2022-10-16T11:56:39;97805.38;;;22.42;66.04
22181;BME280;11256;50.830;12.834;2022-10-16T12:01:44;97810.41;;;22.52;65.61
22181;BME280;11256;50.830;12.834;2022-10-16T12:07:09;97821.72;;;22.63;65.47
22181;BME280;11256;50.830;12.834;2022-10-16T12:12:36;97809.16;;;22.65;64.17
22181;BME280;11256;50.830;12.834;2022-10-16T12:17:38;97819.78;;;22.79;64.50
22181;BME280;11256;50.830;12.834;2022-10-16T12:22:59;97824.31;;;22.87;64.23
22181;BME280;11256;50.830;12.834;2022-10-16T12:28:22;97819.84;;;22.98;64.74
22181;BME280;11256;50.830;12.834;2022-10-16T12:33:30;97836.25;;;23.06;64.24
22181;BME280;11256;50.830;12.834;2022-10-16T12:38:46;97832.88;;;23.28;63.18
22181;BME280;11256;50.830;12.834;2022-10-16T12:43:47;97836.91;;;23.31;63.69
22181;BME280;11256;50.830;12.834;2022-10-16T12:48:48;97844.22;;;23.39;63.28
22181;BME280;11256;50.830;12.834;2022-10-16T12:54:31;97847.00;;;23.39;62.99
22181;BME280;11256;50.830;12.834;2022-10-16T12:59:47;97839.50;;;23.39;62.93
22181;BME280;11256;50.830;12.834;2022-10-16T13:10:26;97842.50;;;23.50;63.20
22181;BME280;11256;50.830;12.834;2022-10-16T13:15:46;97847.41;;;23.56;62.33
22181;BME280;11256;50.830;12.834;2022-10-16T13:21:14;97854.53;;;23.57;61.95
22181;BME280;11256;50.830;12.834;2022-10-16T13:26:49;97855.53;;;23.49;61.82
22181;BME280;11256;50.830;12.834;2022-10-16T13:31:53;97861.78;;;23.46;61.80
22181;BME280;11256;50.830;12.834;2022-10-16T13:36:53;97862.41;;;23.40;62.29
22181;BME280;11256;50.830;12.834;2022-10-16T13:47:01;97867.06;;;23.36;62.01
22181;BME280;11256;50.830;12.834;2022-10-16T13:52:01;97864.22;;;23.32;62.04
22181;BME280;11256;50.830;12.834;2022-10-16T13:57:05;97860.94;;;23.27;62.08
22181;BME280;11256;50.830;12.834;2022-10-16T14:02:26;97863.22;;;23.25;62.38
22181;BME280;11256;50.830;12.834;2022-10-16T14:07:33;97872.00;;;23.27;62.12
22181;BME280;11256;50.830;12.834;2022-10-16T14:12:34;97865.22;;;23.24;61.88
22181;BME280;11256;50.830;12.834;2022-10-16T14:17:35;97858.16;;;23.27;62.05
22181;BME280;11256;50.830;12.834;2022-10-16T14:22:38;97879.03;;;23.40;61.40
22181;BME280;11256;50.830;12.834;2022-10-16T14:27:40;97887.75;;;23.42;61.12
22181;BME280;11256;50.830;12.834;2022-10-16T14:32:42;97889.53;;;23.50;60.69
22181;BME280;11256;50.830;12.834;2022-10-16T14:37:54;97892.19;;;23.62;61.15
22181;BME280;11256;50.830;12.834;2022-10-16T14:42:55;97899.16;;;23.71;61.82
22181;BME280;11256;50.830;12.834;2022-10-16T14:47:58;97903.78;;;23.83;61.63
22181;BME280;11256;50.830;12.834;2022-10-16T14:53:00;97908.78;;;23.93;61.63
22181;BME280;11256;50.830;12.834;2022-10-16T14:58:00;97908.66;;;24.05;60.94
22181;BME280;11256;50.830;12.834;2022-10-16T15:03:01;97891.06;;;23.97;61.44
22181;BME280;11256;50.830;12.834;2022-10-16T15:08:01;97922.22;;;24.10;61.28
22181;BME280;11256;50.830;12.834;2022-10-16T15:13:01;97919.09;;;24.11;60.58
22181;BME280;11256;50.830;12.834;2022-10-16T15:18:02;97919.38;;;24.06;61.25
22181;BME280;11256;50.830;12.834;2022-10-16T15:23:13;97922.22;;;24.10;61.09
22181;BME280;11256;50.830;12.834;2022-10-16T15:28:15;97913.84;;;24.06;60.48
22181;BME280;11256;50.830;12.834;2022-10-16T15:33:17;97923.97;;;23.99;60.31
22181;BME280;11256;50.830;12.834;2022-10-16T15:38:20;97923.81;;;23.92;60.25
22181;BME280;11256;50.830;12.834;2022-10-16T15:43:21;97935.41;;;23.82;60.83
22181;BME280;11256;50.830;12.834;2022-10-16T15:48:21;97944.59;;;23.70;61.08
22181;BME280;11256;50.830;12.834;2022-10-16T15:53:22;97938.63;;;23.53;61.20
22181;BME280;11256;50.830;12.834;2022-10-16T15:58:22;97938.38;;;23.42;61.20
22181;BME280;11256;50.830;12.834;2022-10-16T16:03:23;97942.84;;;23.31;61.47
22181;BME280;11256;50.830;12.834;2022-10-16T16:08:23;97948.00;;;23.17;61.45
22181;BME280;11256;50.830;12.834;2022-10-16T16:13:24;97965.00;;;23.04;61.42
22181;BME280;11256;50.830;12.834;2022-10-16T16:18:24;97967.03;;;22.91;61.96
22181;BME280;11256;50.830;12.834;2022-10-16T16:23:25;97968.31;;;22.82;61.76
22181;BME280;11256;50.830;12.834;2022-10-16T16:28:25;97988.44;;;22.67;61.67
22181;BME280;11256;50.830;12.834;2022-10-16T16:33:25;97997.47;;;22.52;61.81
22181;BME280;11256;50.830;12.834;2022-10-16T16:38:26;98001.66;;;22.34;61.84
22181;BME280;11256;50.830;12.834;2022-10-16T16:43:27;98017.44;;;22.21;61.93
22181;BME280;11256;50.830;12.834;2022-10-16T16:48:27;98035.97;;;22.09;61.79
22181;BME280;11256;50.830;12.834;2022-10-16T16:53:28;98038.25;;;21.95;62.01
22181;BME280;11256;50.830;12.834;2022-10-16T16:58:28;98046.09;;;21.81;62.22
22181;BME280;11256;50.830;12.834;2022-10-16T17:03:29;98046.50;;;21.59;62.39
22181;BME280;11256;50.830;12.834;2022-10-16T17:08:30;98060.81;;;21.40;62.89
22181;BME280;11256;50.830;12.834;2022-10-16T17:13:34;98064.00;;;21.30;62.78
22181;BME280;11256;50.830;12.834;2022-10-16T17:18:37;98075.13;;;21.22;62.96
22181;BME280;11256;50.830;12.834;2022-10-16T17:23:37;98077.84;;;21.10;63.01
22181;BME280;11256;50.830;12.834;2022-10-16T17:28:38;98074.91;;;20.94;63.12
22181;BME280;11256;50.830;12.834;2022-10-16T17:33:39;98081.09;;;20.91;63.13
22181;BME280;11256;50.830;12.834;2022-10-16T17:38:41;98092.34;;;20.78;63.09
22181;BME280;11256;50.830;12.834;2022-10-16T17:43:42;98099.88;;;20.69;63.06
22181;BME280;11256;50.830;12.834;2022-10-16T17:48:45;98097.03;;;20.57;63.09
22181;BME280;11256;50.830;12.834;2022-10-16T17:53:51;98114.44;;;20.49;63.31
22181;BME280;11256;50.830;12.834;2022-10-16T17:58:53;98112.06;;;20.39;63.31
22181;BME280;11256;50.830;12.834;2022-10-16T18:04:03;98110.84;;;20.28;63.39
22181;BME280;11256;50.830;12.834;2022-10-16T18:09:11;98110.41;;;20.17;63.40
22181;BME280;11256;50.830;12.834;2022-10-16T18:14:14;98112.72;;;20.07;63.11
22181;BME280;11256;50.830;12.834;2022-10-16T18:19:15;98126.66;;;20.02;63.34
22181;BME280;11256;50.830;12.834;2022-10-16T18:24:17;98121.19;;;19.93;63.44
22181;BME280;11256;50.830;12.834;2022-10-16T18:29:18;98123.28;;;19.88;63.48
22181;BME280;11256;50.830;12.834;2022-10-16T18:34:18;98126.91;;;19.80;63.82
22181;BME280;11256;50.830;12.834;2022-10-16T18:39:20;98115.78;;;19.68;63.74
22181;BME280;11256;50.830;12.834;2022-10-16T18:44:22;98136.00;;;19.72;63.83
22181;BME280;11256;50.830;12.834;2022-10-16T18:49:23;98135.03;;;19.68;63.82
22181;BME280;11256;50.830;12.834;2022-10-16T18:54:24;98127.59;;;19.60;64.04
22181;BME280;11256;50.830;12.834;2022-10-16T18:59:24;98140.06;;;19.57;64.29
22181;BME280;11256;50.830;12.834;2022-10-16T19:04:25;98125.38;;;19.45;64.19
22181;BME280;11256;50.830;12.834;2022-10-16T19:09:25;98150.28;;;19.48;64.32
22181;BME280;11256;50.830;12.834;2022-10-16T19:14:26;98144.31;;;19.38;64.23
22181;BME280;11256;50.830;12.834;2022-10-16T19:19:28;98149.97;;;19.33;64.55
22181;BME280;11256;50.830;12.834;2022-10-16T19:24:28;98149.66;;;19.26;64.59
22181;BME280;11256;50.830;12.834;2022-10-16T19:29:29;98160.19;;;19.24;64.74
22181;BME280;11256;50.830;12.834;2022-10-16T19:34:30;98158.19;;;19.16;64.84
22181;BME280;11256;50.830;12.834;2022-10-16T19:39:30;98164.00;;;19.14;64.81
22181;BME280;11256;50.830;12.834;2022-10-16T19:44:31;98161.25;;;19.06;65.68
22181;BME280;11256;50.830;12.834;2022-10-16T19:49:31;98160.94;;;18.99;65.44
22181;BME280;11256;50.830;12.834;2022-10-16T19:54:32;98158.19;;;18.99;65.35
22181;BME280;11256;50.830;12.834;2022-10-16T19:59:34;98160.63;;;18.92;65.41
22181;BME280;11256;50.830;12.834;2022-10-16T20:04:35;98165.16;;;18.88;65.54
22181;BME280;11256;50.830;12.834;2022-10-16T20:09:35;98156.28;;;18.82;65.28
22181;BME280;11256;50.830;12.834;2022-10-16T20:14:36;98169.34;;;18.85;65.45
22181;BME280;11256;50.830;12.834;2022-10-16T20:19:36;98172.56;;;18.79;65.62
22181;BME280;11256;50.830;12.834;2022-10-16T20:24:38;98183.38;;;18.75;65.42
22181;BME280;11256;50.830;12.834;2022-10-16T20:29:39;98186.25;;;18.62;65.29
22181;BME280;11256;50.830;12.834;2022-10-16T20:34:39;98192.72;;;18.57;65.51
22181;BME280;11256;50.830;12.834;2022-10-16T20:39:41;98202.53;;;18.50;65.45
22181;BME280;11256;50.830;12.834;2022-10-16T20:44:42;98208.84;;;18.42;65.62
22181;BME280;11256;50.830;12.834;2022-10-16T20:49:42;98209.59;;;18.34;65.72
22181;BME280;11256;50.830;12.834;2022-10-16T20:54:43;98210.66;;;18.24;65.64
22181;BME280;11256;50.830;12.834;2022-10-16T20:59:44;98214.38;;;18.20;66.07
22181;BME280;11256;50.830;12.834;2022-10-16T21:04:45;98215.28;;;18.15;65.97
22181;BME280;11256;50.830;12.834;2022-10-16T21:09:46;98207.03;;;18.07;66.05
22181;BME280;11256;50.830;12.834;2022-10-16T21:14:46;98228.63;;;18.00;65.91
22181;BME280;11256;50.830;12.834;2022-10-16T21:19:46;98212.31;;;17.95;66.07
22181;BME280;11256;50.830;12.834;2022-10-16T21:24:47;98214.69;;;17.88;66.35
22181;BME280;11256;50.830;12.834;2022-10-16T21:29:47;98217.88;;;17.81;66.13
22181;BME280;11256;50.830;12.834;2022-10-16T21:34:48;98231.28;;;17.83;66.48
22181;BME280;11256;50.830;12.834;2022-10-16T21:39:53;98229.47;;;17.78;66.17
22181;BME280;11256;50.830;12.834;2022-10-16T21:44:53;98239.75;;;17.73;66.41
22181;BME280;11256;50.830;12.834;2022-10-16T21:49:54;98237.44;;;17.66;66.39
22181;BME280;11256;50.830;12.834;2022-10-16T21:54:54;98234.53;;;17.63;66.47
22181;BME280;11256;50.830;12.834;2022-10-16T21:59:54;98231.16;;;17.66;66.30
22181;BME280;11256;50.830;12.834;2022-10-16T22:04:55;98222.19;;;17.52;66.51
22181;BME280;11256;50.830;12.834;2022-10-16T22:09:55;98236.84;;;17.47;66.43
22181;BME280;11256;50.830;12.834;2022-10-16T22:14:56;98244.22;;;17.47;66.58
22181;BME280;11256;50.830;12.834;2022-10-16T22:19:56;98250.47;;;17.39;66.76
22181;BME280;11256;50.830;12.834;2022-10-16T22:24:57;98249.44;;;17.35;66.88
22181;BME280;11256;50.830;12.834;2022-10-16T22:29:57;98242.16;;;17.30;67.08
22181;BME280;11256;50.830;12.834;2022-10-16T22:34:57;98242.47;;;17.29;66.81
22181;BME280;11256;50.830;12.834;2022-10-16T22:39:58;98252.22;;;17.21;66.80
22181;BME280;11256;50.830;12.834;2022-10-16T22:44:58;98252.63;;;17.15;66.78
22181;BME280;11256;50.830;12.834;2022-10-16T22:49:59;98246.78;;;17.08;66.97
22181;BME280;11256;50.830;12.834;2022-10-16T22:54:59;98233.19;;;17.03;67.01
22181;BME280;11256;50.830;12.834;2022-10-16T22:59:59;98238.06;;;17.06;66.89
22181;BME280;11256;50.830;12.834;2022-10-16T23:05:00;98239.91;;;16.97;66.78
22181;BME280;11256;50.830;12.834;2022-10-16T23:10:01;98251.97;;;16.96;66.99
22181;BME280;11256;50.830;12.834;2022-10-16T23:15:02;98245.19;;;16.93;66.79
22181;BME280;11256;50.830;12.834;2022-10-16T23:20:03;98248.88;;;16.89;66.69
22181;BME280;11256;50.830;12.834;2022-10-16T23:25:03;98247.47;;;16.78;66.89
22181;BME280;11256;50.830;12.834;2022-10-16T23:30:06;98243.50;;;16.70;66.91
22181;BME280;11256;50.830;12.834;2022-10-16T23:35:07;98235.69;;;16.64;66.99
22181;BME280;11256;50.830;12.834;2022-10-16T23:40:07;98239.66;;;16.58;67.18
22181;BME280;11256;50.830;12.834;2022-10-16T23:45:08;98231.06;;;16.51;67.08
22181;BME280;11256;50.830;12.834;2022-10-16T23:50:08;98231.66;;;16.48;67.23
22181;BME280;11256;50.830;12.834;2022-10-16T23:55:09;98230.72;;;16.39;67.46
